Time;durP1;ratioP1;P1;durP2;ratioP2;P2;SDS_P1;SDS_P2;PMS_P1;PMS_P2;Temp;Humidity;BMP_temperature;BMP_pressure;BME280_temperature;BME280_humidity;BME280_pressure;Samples;Min_cycle;Max_cycle;Signal;HPM_P1;HPM_P2
2022/05/06 00:01:40;;;;;;;6.60;2.60;;;;;;;10.07;100.00;95868.97;5065662;28;20090;-79
2022/05/06 00:04:06;;;;;;;6.53;2.60;;;;;;;10.18;100.00;95875.81;5074895;28;20041;-78
2022/05/06 00:06:33;;;;;;;11.10;3.25;;;;;;;10.16;100.00;95883.19;5073542;28;20109;-79
2022/05/06 00:08:59;;;;;;;6.65;2.85;;;;;;;10.14;100.00;95890.56;5075155;28;20041;-79
2022/05/06 00:11:25;;;;;;;4.82;2.85;;;;;;;10.07;100.00;95892.63;5075616;28;20051;-79
2022/05/06 00:13:52;;;;;;;10.57;3.30;;;;;;;9.94;100.00;95885.19;5070578;28;20033;-79
2022/05/06 00:16:22;;;;;;;8.25;2.83;;;;;;;9.92;100.00;95889.94;5092347;28;20044;-79
2022/05/06 00:18:48;;;;;;;5.53;3.00;;;;;;;9.89;100.00;95889.38;5070603;28;20045;-80
2022/05/06 00:21:13;;;;;;;8.40;3.00;;;;;;;9.92;100.00;95882.03;5059849;28;20052;-80
2022/05/06 00:23:39;;;;;;;6.63;2.60;;;;;;;9.95;100.00;95871.00;5061655;28;20040;-80
2022/05/06 00:26:05;;;;;;;21.58;3.45;;;;;;;9.91;100.00;95869.94;5068000;28;20043;-80
2022/05/06 00:28:30;;;;;;;10.45;2.90;;;;;;;9.92;100.00;95858.38;5069820;28;20047;-80
2022/05/06 00:30:57;;;;;;;8.02;2.80;;;;;;;9.98;100.00;95866.00;5070302;28;20471;-80
2022/05/06 00:33:26;;;;;;;8.45;3.00;;;;;;;9.92;100.00;95861.00;5070835;28;20040;-80
2022/05/06 00:35:57;;;;;;;7.55;3.10;;;;;;;9.91;100.00;95854.16;5059508;28;20587;-80
2022/05/06 00:38:24;;;;;;;5.38;2.90;;;;;;;9.87;100.00;95854.69;5055018;28;20109;-81
2022/05/06 00:40:50;;;;;;;7.13;2.63;;;;;;;9.88;100.00;95861.53;5076851;28;20089;-81
2022/05/06 00:43:16;;;;;;;4.57;2.60;;;;;;;9.86;100.00;95847.84;5063442;28;20517;-81
2022/05/06 00:45:54;;;;;;;6.10;2.80;;;;;;;9.78;100.00;95845.69;5071356;28;20651;-80
2022/05/06 00:48:26;;;;;;;9.43;3.13;;;;;;;9.79;100.00;95857.78;5067872;28;20036;-81
2022/05/06 00:50:52;;;;;;;11.40;3.30;;;;;;;9.77;100.00;95849.38;5064948;28;20040;-81
2022/05/06 00:53:18;;;;;;;7.03;2.90;;;;;;;9.68;100.00;95848.25;5071762;28;20188;-80
2022/05/06 00:55:44;;;;;;;5.78;3.17;;;;;;;9.73;100.00;95850.94;5058335;28;20068;-81
2022/05/06 00:58:10;;;;;;;5.88;3.17;;;;;;;9.65;100.00;95840.88;5069491;28;20511;-81
2022/05/06 01:00:36;;;;;;;6.43;3.05;;;;;;;9.74;100.00;95835.94;5069636;28;20052;-81
2022/05/06 01:03:02;;;;;;;7.13;3.25;;;;;;;9.71;100.00;95831.97;5071065;28;20055;-81
2022/05/06 01:05:29;;;;;;;8.75;3.00;;;;;;;9.78;100.00;95829.91;5066732;28;20041;-81
2022/05/06 01:07:56;;;;;;;6.93;3.05;;;;;;;9.70;100.00;95833.03;5068754;28;20071;-81
2022/05/06 01:10:21;;;;;;;34.33;3.42;;;;;;;9.66;100.00;95821.47;5059902;28;20069;-81
2022/05/06 01:12:48;;;;;;;12.13;3.10;;;;;;;9.68;100.00;95808.84;5050793;28;20051;-82
2022/05/06 01:15:25;;;;;;;7.78;2.65;;;;;;;9.56;100.00;95816.16;5067168;28;20041;-81
2022/05/06 01:17:53;;;;;;;7.22;3.22;;;;;;;9.62;100.00;95818.53;5063463;28;20044;-81
2022/05/06 01:20:20;;;;;;;9.80;3.15;;;;;;;9.66;100.00;95816.19;5068043;28;20052;-81
2022/05/06 01:22:47;;;;;;;11.25;3.47;;;;;;;9.68;100.00;95819.34;5065461;28;20790;-81
2022/05/06 01:25:14;;;;;;;8.18;3.05;;;;;;;9.63;100.00;95808.84;5063259;28;20051;-81
2022/05/06 01:28:02;;;;;;;11.68;3.60;;;;;;;9.63;100.00;95821.97;5067736;28;20032;-82
2022/05/06 01:30:38;;;;;;;10.32;3.30;;;;;;;9.52;100.00;95819.28;5063919;28;20418;-82
2022/05/06 01:33:08;;;;;;;6.80;3.38;;;;;;;9.52;100.00;95816.66;5058161;28;20084;-81
2022/05/06 01:35:51;;;;;;;7.47;3.72;;;;;;;9.58;100.00;95820.09;5050022;28;20049;-81
2022/05/06 01:38:21;;;;;;;9.27;3.65;;;;;;;9.66;100.00;95813.56;5062841;28;20140;-81
2022/05/06 01:40:52;;;;;;;10.00;4.00;;;;;;;9.71;100.00;95813.59;5065463;28;20790;-81
2022/05/06 01:43:18;;;;;;;10.30;4.00;;;;;;;9.62;100.00;95810.66;5057203;28;20454;-81
2022/05/06 01:45:47;;;;;;;6.22;3.47;;;;;;;9.61;100.00;95819.59;5065787;28;20636;-81
2022/05/06 01:48:16;;;;;;;7.85;3.47;;;;;;;9.69;100.00;95821.72;5068789;28;20036;-80
2022/05/06 01:50:43;;;;;;;8.80;3.63;;;;;;;9.68;100.00;95835.13;5067033;28;20044;-80
2022/05/06 01:53:09;;;;;;;13.80;4.38;;;;;;;9.57;100.00;95823.78;5063437;28;20093;-80
2022/05/06 01:55:35;;;;;;;7.13;3.47;;;;;;;9.61;100.00;95824.03;5071232;28;20394;-80
2022/05/06 01:58:00;;;;;;;12.95;4.03;;;;;;;9.49;100.00;95830.28;5083191;28;20048;-80
2022/05/06 02:00:26;;;;;;;10.27;4.32;;;;;;;9.44;100.00;95830.28;5066394;28;20037;-80
2022/05/06 02:02:51;;;;;;;10.15;4.30;;;;;;;9.44;100.00;95825.03;5050285;28;20048;-80
2022/05/06 02:05:17;;;;;;;8.65;4.28;;;;;;;9.47;100.00;95819.25;5052574;28;20043;-80
2022/05/06 02:07:44;;;;;;;8.95;4.07;;;;;;;9.44;100.00;95814.50;5062762;28;20059;-81
2022/05/06 02:10:10;;;;;;;10.23;4.00;;;;;;;9.47;100.00;95816.63;5068262;28;20384;-80
2022/05/06 02:12:36;;;;;;;9.65;3.90;;;;;;;9.39;100.00;95811.84;5069320;28;20048;-80
2022/05/06 02:15:02;;;;;;;9.15;4.05;;;;;;;9.44;100.00;95814.50;5060410;28;20039;-80
2022/05/06 02:17:28;;;;;;;11.15;3.63;;;;;;;9.45;100.00;95826.63;5068921;28;20047;-80
2022/05/06 02:19:54;;;;;;;9.90;3.92;;;;;;;9.34;100.00;95830.22;5069306;28;20044;-81
2022/05/06 02:22:19;;;;;;;13.38;5.30;;;;;;;9.32;100.00;95827.84;5070193;28;20559;-81
2022/05/06 02:24:45;;;;;;;7.25;3.72;;;;;;;9.38;100.00;95830.50;5060182;28;20075;-81
2022/05/06 02:27:13;;;;;;;10.73;3.97;;;;;;;9.38;100.00;95831.28;5068001;28;20047;-81
2022/05/06 02:33:12;;;;;;;7.20;3.78;;;;;;;9.39;100.00;95822.34;5069212;28;20156;-81
2022/05/06 02:35:09;;;;;;;7.75;3.75;;;;;;;9.44;100.00;95818.97;5067947;28;20044;-82
2022/05/06 02:37:35;;;;;;;9.57;4.03;;;;;;;9.39;100.00;95822.34;5060883;28;20068;-81
2022/05/06 02:40:01;;;;;;;12.57;3.85;;;;;;;9.42;100.00;95821.84;5078180;28;20052;-81
2022/05/06 02:42:26;;;;;;;9.77;4.03;;;;;;;9.31;100.00;95823.63;5068879;28;20048;-81
2022/05/06 02:44:52;;;;;;;10.80;4.18;;;;;;;9.34;100.00;95824.97;5063159;28;20040;-80
2022/05/06 02:47:17;;;;;;;8.05;4.10;;;;;;;9.38;100.00;95819.97;5069979;28;20040;-80
2022/05/06 02:49:43;;;;;;;7.75;3.92;;;;;;;9.39;100.00;95822.34;5074190;28;20400;-80
2022/05/06 02:52:09;;;;;;;6.97;3.78;;;;;;;9.41;100.00;95820.28;5050107;28;20548;-80
2022/05/06 02:54:34;;;;;;;7.97;3.45;;;;;;;9.45;100.00;95821.34;5062894;28;20064;-80
2022/05/06 02:57:00;;;;;;;6.88;3.65;;;;;;;9.44;100.00;95819.78;5073448;28;20546;-81
2022/05/06 02:59:26;;;;;;;7.32;4.03;;;;;;;9.47;100.00;95831.59;5066380;28;20070;-80
2022/05/06 03:01:51;;;;;;;10.55;4.05;;;;;;;9.44;100.00;95830.28;5066111;28;20052;-80
2022/05/06 03:04:17;;;;;;;8.95;3.88;;;;;;;9.48;100.00;95826.09;5067768;28;20514;-80
2022/05/06 03:06:44;;;;;;;9.18;3.90;;;;;;;9.48;100.00;95822.66;5079118;28;20045;-80
2022/05/06 03:09:10;;;;;;;7.80;4.22;;;;;;;9.47;100.00;95827.13;5061835;28;20041;-79
2022/05/06 03:11:35;;;;;;;10.40;4.32;;;;;;;9.42;100.00;95819.22;5069960;28;20044;-80
2022/05/06 03:14:01;;;;;;;8.63;4.43;;;;;;;9.45;100.00;95816.09;5080142;28;20049;-80
2022/05/06 03:16:27;;;;;;;8.85;4.40;;;;;;;9.46;100.00;95817.66;5070030;28;20051;-80
2022/05/06 03:18:52;;;;;;;8.43;4.20;;;;;;;9.38;100.00;95820.78;5067425;28;20142;-80
2022/05/06 03:21:18;;;;;;;10.27;5.00;;;;;;;9.44;100.00;95814.50;5071300;28;20048;-80
2022/05/06 03:23:50;;;;;;;9.15;4.95;;;;;;;9.43;100.00;95812.94;5084989;28;20103;-80
2022/05/06 03:26:16;;;;;;;8.05;4.47;;;;;;;9.40;100.00;95810.81;5054601;28;20091;-80
2022/05/06 03:28:43;;;;;;;9.15;4.50;;;;;;;9.41;100.00;95809.78;5053000;28;20063;-80
2022/05/06 03:31:11;;;;;;;9.02;4.50;;;;;;;9.44;100.00;95818.97;5084887;28;20043;-80
2022/05/06 03:33:37;;;;;;;8.75;4.93;;;;;;;9.45;100.00;95816.09;5070749;28;20036;-80
2022/05/06 03:36:03;;;;;;;8.45;4.80;;;;;;;9.42;100.00;95821.06;5064573;28;20041;-80
2022/05/06 03:38:28;;;;;;;12.60;4.97;;;;;;;9.39;100.00;95817.09;5056941;28;20043;-81
2022/05/06 03:40:55;;;;;;;7.80;4.35;;;;;;;9.42;100.00;95821.84;5070390;28;20044;-80
2022/05/06 03:43:21;;;;;;;8.93;4.75;;;;;;;9.43;100.00;95812.94;5070995;28;20037;-81
2022/05/06 03:45:46;;;;;;;10.70;4.43;;;;;;;9.45;100.00;95816.09;5062775;28;20048;-81
2022/05/06 03:48:12;;;;;;;10.93;4.93;;;;;;;9.42;100.00;95821.84;5087965;28;20119;-80
2022/05/06 03:53:24;;;;;;;9.13;4.53;;;;;;;9.51;100.00;95822.97;5056212;28;20041;-81
2022/05/06 03:55:50;;;;;;;8.50;4.43;;;;;;;9.52;100.00;95827.19;5071040;28;20098;-82
2022/05/06 03:58:15;;;;;;;12.18;4.47;;;;;;;9.52;100.00;95821.91;5062627;28;20036;-82
2022/05/06 04:00:41;;;;;;;8.98;4.38;;;;;;;9.42;100.00;95832.34;5059304;28;20037;-81
2022/05/06 04:03:07;;;;;;;8.50;4.18;;;;;;;9.46;100.00;95833.44;5071448;28;20040;-80
2022/05/06 04:05:34;;;;;;;9.95;4.38;;;;;;;9.56;100.00;95843.22;5060142;28;20041;-81
2022/05/06 04:08:00;;;;;;;11.00;4.90;;;;;;;9.49;100.00;95845.28;5055901;28;20095;-80
2022/05/06 04:10:27;;;;;;;10.95;4.50;;;;;;;9.51;100.00;95843.97;5065353;28;20047;-79
2022/05/06 04:12:53;;;;;;;12.95;4.55;;;;;;;9.54;100.00;95850.56;5072682;28;20094;-79
2022/05/06 04:15:19;;;;;;;9.98;5.22;;;;;;;9.53;100.00;95848.97;5071463;28;20090;-80
2022/05/06 04:17:45;;;;;;;10.52;4.85;;;;;;;9.54;100.00;95861.84;5068582;28;20048;-80
2022/05/06 04:25:41;;;;;;;10.30;4.88;;;;;;;9.57;100.00;95872.88;5060723;28;20508;-80
2022/05/06 04:28:07;;;;;;;10.05;4.97;;;;;;;9.50;100.00;95879.16;5055030;28;20052;-79
2022/05/06 04:30:34;;;;;;;12.90;5.43;;;;;;;9.50;100.00;95875.75;5060437;28;20037;-79
2022/05/06 04:32:59;;;;;;;9.85;5.25;;;;;;;9.51;100.00;95883.38;5073417;28;20136;-79
2022/05/06 04:35:25;;;;;;;11.45;5.25;;;;;;;9.44;100.00;95867.06;5068431;28;20618;-79
2022/05/06 04:37:51;;;;;;;14.77;5.85;;;;;;;9.47;100.00;95868.38;5070904;28;20053;-79
2022/05/06 04:40:17;;;;;;;11.85;5.28;;;;;;;9.53;100.00;95870.78;5066791;28;20041;-79
2022/05/06 04:42:45;;;;;;;10.23;5.15;;;;;;;9.48;100.00;95878.63;5055294;28;20430;-80
2022/05/06 04:45:10;;;;;;;10.68;5.13;;;;;;;9.49;100.00;95874.16;5057528;28;20094;-79
2022/05/06 04:47:37;;;;;;;10.68;5.60;;;;;;;9.47;100.00;95871.78;5079236;28;20131;-80
2022/05/06 04:50:04;;;;;;;11.32;5.30;;;;;;;9.43;100.00;95875.97;5059864;28;20049;-80
2022/05/06 04:52:31;;;;;;;12.80;5.38;;;;;;;9.46;100.00;95869.44;5057105;28;20055;-81
2022/05/06 04:54:57;;;;;;;12.77;6.15;;;;;;;9.42;100.00;95863.09;5056086;28;20084;-81
2022/05/06 04:57:23;;;;;;;14.02;6.60;;;;;;;9.49;100.00;95863.66;5072461;28;20407;-80
2022/05/06 04:59:49;;;;;;;13.05;6.38;;;;;;;9.53;100.00;95876.03;5066899;28;20033;-80
2022/05/06 05:02:16;;;;;;;12.15;6.20;;;;;;;9.52;100.00;95869.22;5068149;28;20505;-80
2022/05/06 05:04:42;;;;;;;14.48;6.43;;;;;;;9.62;100.00;95878.19;5068808;28;20044;-80
2022/05/06 05:07:07;;;;;;;13.20;5.97;;;;;;;9.67;100.00;95883.50;5059243;28;20116;-80
2022/05/06 05:09:33;;;;;;;11.25;5.75;;;;;;;9.70;100.00;95885.59;5068793;28;20112;-80
2022/05/06 05:11:59;;;;;;;11.50;5.57;;;;;;;9.70;100.00;95880.34;5060739;28;20040;-80
2022/05/06 05:14:24;;;;;;;14.10;5.80;;;;;;;9.66;100.00;95889.78;5068645;28;20040;-80
2022/05/06 05:16:50;;;;;;;10.20;5.72;;;;;;;9.68;100.00;95888.50;5057800;28;20029;-81
2022/05/06 05:19:16;;;;;;;12.48;6.22;;;;;;;9.67;100.00;95891.38;5062576;28;20494;-81
2022/05/06 05:21:42;;;;;;;12.07;6.43;;;;;;;9.74;100.00;95897.19;5069953;28;20146;-81
2022/05/06 05:24:08;;;;;;;11.73;6.40;;;;;;;9.69;100.00;95889.28;5066720;28;20060;-81
2022/05/06 05:26:34;;;;;;;12.65;6.07;;;;;;;9.76;100.00;95895.09;5069079;28;20402;-81
2022/05/06 05:29:00;;;;;;;13.90;7.03;;;;;;;9.74;100.00;95897.19;5066848;28;20048;-80
2022/05/06 05:31:26;;;;;;;11.98;6.13;;;;;;;9.74;100.00;95896.38;5073364;28;20590;-80
2022/05/06 05:33:55;;;;;;;15.50;7.38;;;;;;;9.80;100.00;95901.44;5082366;28;20036;-80
2022/05/06 05:36:20;;;;;;;15.50;7.03;;;;;;;9.76;100.00;95900.34;5068098;28;20495;-80
2022/05/06 05:38:46;;;;;;;11.00;6.53;;;;;;;9.76;100.00;95892.47;5053466;28;20124;-80
2022/05/06 05:41:11;;;;;;;11.38;6.18;;;;;;;9.76;100.00;95892.47;5055961;28;20049;-81
2022/05/06 05:49:06;;;;;;;16.07;7.07;;;;;;;9.96;100.00;95888.38;5063088;28;20040;-81
2022/05/06 05:51:34;;;;;;;16.95;7.32;;;;;;;10.03;100.00;95888.94;5068203;28;20300;-81
2022/05/06 05:54:00;;;;;;;14.43;6.82;;;;;;;9.98;100.00;95892.31;5073289;28;20047;-81
2022/05/06 05:56:26;;;;;;;16.15;7.15;;;;;;;9.93;100.00;95889.66;5068154;28;20041;-81
2022/05/06 05:58:51;;;;;;;15.93;7.22;;;;;;;10.01;100.00;95885.75;5066878;28;20048;-79
2022/05/06 06:01:18;;;;;;;13.55;7.63;;;;;;;10.05;100.00;95892.09;5071685;28;20070;-76
2022/05/06 06:03:43;;;;;;;16.17;7.28;;;;;;;10.10;100.00;95889.50;5075260;28;20040;-78
2022/05/06 06:06:09;;;;;;;15.00;7.45;;;;;;;10.11;100.00;95898.94;5066540;28;20106;-78
2022/05/06 06:08:35;;;;;;;15.07;7.72;;;;;;;10.12;100.00;95897.91;5078543;28;20113;-78
2022/05/06 06:11:04;;;;;;;15.57;7.38;;;;;;;10.16;100.00;95892.94;5064856;28;20155;-79
2022/05/06 06:13:30;;;;;;;17.55;8.10;;;;;;;10.16;100.00;95893.72;5088442;28;20048;-79
2022/05/06 06:15:57;;;;;;;15.57;8.55;;;;;;;10.20;100.00;95888.72;5063412;28;20072;-77
2022/05/06 06:18:26;;;;;;;17.33;9.15;;;;;;;10.19;100.00;95890.56;5055217;28;20049;-78
2022/05/06 06:20:56;;;;;;;19.50;9.10;;;;;;;10.29;100.00;95902.19;5072401;28;20409;-77
2022/05/06 06:23:22;;;;;;;18.42;8.68;;;;;;;10.30;100.00;95906.38;5072241;28;20037;-78
2022/05/06 06:25:48;;;;;;;15.90;8.63;;;;;;;10.35;100.00;95890.66;5076784;28;20094;-78
2022/05/06 06:28:15;;;;;;;17.00;9.00;;;;;;;10.35;100.00;95890.66;5066436;28;20029;-77
2022/05/06 06:30:40;;;;;;;15.95;8.45;;;;;;;10.31;100.00;95894.81;5069451;28;20454;-77
2022/05/06 06:33:09;;;;;;;20.48;7.30;;;;;;;10.27;100.00;95897.19;5068402;28;20107;-80
2022/05/06 06:35:35;;;;;;;14.48;8.15;;;;;;;10.37;100.00;95899.06;5067426;28;20033;-76
2022/05/06 06:38:00;;;;;;;16.33;8.80;;;;;;;10.36;100.00;95900.16;5062544;28;20047;-77
2022/05/06 06:40:26;;;;;;;15.52;9.40;;;;;;;10.39;100.00;95902.25;5070515;28;20497;-78
2022/05/06 06:42:52;;;;;;;13.90;8.25;;;;;;;10.40;100.00;95899.38;5069552;28;20117;-77
2022/05/06 06:45:18;;;;;;;13.57;7.18;;;;;;;10.42;100.00;95891.22;5063042;28;20550;-76
2022/05/06 06:47:44;;;;;;;10.68;6.00;;;;;;;10.42;100.00;95899.09;5059481;28;20040;-76
2022/05/06 06:50:10;;;;;;;11.98;6.63;;;;;;;10.45;100.00;95901.22;5069036;28;20040;-77
2022/05/06 06:52:36;;;;;;;16.55;7.40;;;;;;;10.56;100.00;95896.78;5068525;28;20047;-77
2022/05/06 06:55:02;;;;;;;11.10;6.45;;;;;;;10.66;100.00;95891.53;5067667;28;20041;-75
2022/05/06 06:57:31;;;;;;;15.02;6.60;;;;;;;10.63;100.00;95891.25;5065082;28;20495;-76
2022/05/06 06:59:57;;;;;;;12.57;6.43;;;;;;;10.79;100.00;95900.78;5070052;28;20108;-75
2022/05/06 07:02:22;;;;;;;12.07;7.15;;;;;;;10.84;100.00;95908.66;5071890;28;20044;-76
2022/05/06 07:04:48;;;;;;;12.35;5.78;;;;;;;10.72;100.00;95908.13;5072291;28;20040;-74
2022/05/06 07:12:42;;;;;;;11.30;6.32;;;;;;;10.90;100.00;95905.03;5068329;28;20036;-74
2022/05/06 07:15:08;;;;;;;12.85;6.35;;;;;;;10.91;100.00;95909.22;5071476;28;20036;-75
2022/05/06 07:17:34;;;;;;;11.98;5.38;;;;;;;10.87;100.00;95910.78;5071802;28;20044;-74
2022/05/06 07:20:00;;;;;;;12.13;5.68;;;;;;;10.97;100.00;95906.59;5070252;28;20044;-73
2022/05/06 07:22:25;;;;;;;11.73;6.13;;;;;;;10.99;100.00;95912.38;5069292;28;20045;-73
2022/05/06 07:24:51;;;;;;;10.73;5.38;;;;;;;11.01;100.00;95902.41;5071364;28;20395;-73
2022/05/06 07:27:18;;;;;;;10.23;5.53;;;;;;;11.02;100.00;95910.03;5069152;28;20060;-73
2022/05/06 07:29:44;;;;;;;12.63;6.65;;;;;;;10.97;100.00;95912.66;5071443;28;20047;-73
2022/05/06 07:32:10;;;;;;;10.07;5.97;;;;;;;10.87;100.00;95913.41;5071318;28;20044;-73
2022/05/06 07:34:35;;;;;;;11.73;5.75;;;;;;;10.97;100.00;95917.13;5068552;28;20044;-72
2022/05/06 07:37:01;;;;;;;9.85;5.90;;;;;;;11.05;100.00;95914.00;5067043;28;20041;-73
2022/05/06 07:39:27;;;;;;;13.52;7.07;;;;;;;10.94;100.00;95922.94;5070470;28;20040;-75
2022/05/06 07:41:52;;;;;;;15.15;7.68;;;;;;;10.86;100.00;95916.31;5071648;28;20456;-74
2022/05/06 07:44:18;;;;;;;12.05;6.22;;;;;;;10.86;100.00;95917.13;5067462;28;20055;-75
2022/05/06 07:46:44;;;;;;;11.15;5.63;;;;;;;10.87;100.00;95923.94;5082207;28;20103;-72
2022/05/06 07:49:09;;;;;;;10.05;6.22;;;;;;;10.98;100.00;95918.72;5087102;28;20044;-72
2022/05/06 07:51:35;;;;;;;11.90;6.90;;;;;;;10.92;100.00;95910.81;5086450;28;20044;-72
2022/05/06 07:54:02;;;;;;;14.05;6.93;;;;;;;11.00;100.00;95924.50;5075471;28;20171;-73
2022/05/06 07:56:30;;;;;;;12.18;6.82;;;;;;;11.01;100.00;95923.47;5071298;28;20516;-72
2022/05/06 07:58:57;;;;;;;14.20;6.45;;;;;;;11.11;100.00;95923.47;5068038;28;20044;-72
2022/05/06 08:06:52;;;;;;;15.57;8.00;;;;;;;10.92;100.00;95926.59;5051024;28;20052;-75
2022/05/06 08:09:18;;;;;;;15.10;7.25;;;;;;;11.04;100.00;95933.47;5069673;28;20093;-76
2022/05/06 08:11:43;;;;;;;14.15;7.50;;;;;;;10.91;100.00;95930.28;5069578;28;20040;-75
2022/05/06 08:14:09;;;;;;;16.00;8.05;;;;;;;11.01;100.00;95923.47;5059530;28;20468;-77
2022/05/06 08:16:35;;;;;;;14.25;7.75;;;;;;;10.86;100.00;95926.84;5062534;28;20115;-74
2022/05/06 08:19:00;;;;;;;15.73;8.25;;;;;;;10.76;100.00;95927.63;5069650;28;20048;-73
2022/05/06 08:21:25;;;;;;;15.18;9.00;;;;;;;10.78;100.00;95935.28;5069610;28;20098;-74
2022/05/06 08:23:52;;;;;;;18.67;9.73;;;;;;;10.80;100.00;95928.66;5070431;28;20502;-74
2022/05/06 08:26:18;;;;;;;20.83;9.73;;;;;;;10.87;100.00;95934.47;5071007;28;20116;-74
2022/05/06 08:28:44;;;;;;;19.83;10.30;;;;;;;10.97;100.00;95933.72;5064284;28;20564;-74
2022/05/06 08:31:10;;;;;;;18.52;9.20;;;;;;;10.91;100.00;95930.28;5069890;28;20079;-75
2022/05/06 08:33:36;;;;;;;15.57;8.85;;;;;;;10.88;100.00;95938.69;5066695;28;20044;-75
2022/05/06 08:36:04;;;;;;;14.20;8.32;;;;;;;10.87;100.00;95931.84;5064050;28;20121;-74
2022/05/06 08:38:30;;;;;;;16.20;8.55;;;;;;;10.96;100.00;95936.59;5066640;28;20036;-74
2022/05/06 08:40:57;;;;;;;18.60;9.65;;;;;;;10.83;100.00;95941.34;5070655;28;20430;-73
2022/05/06 08:43:23;;;;;;;21.50;10.43;;;;;;;10.87;100.00;95934.47;5067947;28;20032;-73
2022/05/06 08:51:26;;;;;;;22.95;11.25;;;;;;;10.90;100.00;95947.16;5060891;28;20041;-73
2022/05/06 08:53:54;;;;;;;20.60;11.75;;;;;;;10.77;100.00;95939.72;5056711;28;20091;-73
2022/05/06 08:56:19;;;;;;;26.95;13.90;;;;;;;10.94;100.00;95949.25;5058904;28;20094;-73
2022/05/06 08:58:45;;;;;;;22.65;12.70;;;;;;;10.89;100.00;95948.19;5057257;28;20494;-73
2022/05/06 09:01:12;;;;;;;25.13;12.52;;;;;;;10.89;100.00;95948.19;5069424;28;20086;-73
2022/05/06 09:03:39;;;;;;;22.73;12.98;;;;;;;10.98;100.00;95950.31;5068548;28;20494;-73
2022/05/06 09:06:05;;;;;;;30.08;14.27;;;;;;;11.01;100.00;95949.78;5063575;28;20052;-73
2022/05/06 09:08:41;;;;;;;26.45;14.40;;;;;;;11.00;100.00;95958.75;5062041;28;20037;-73
2022/05/06 09:11:10;;;;;;;27.80;14.93;;;;;;;11.09;100.00;95951.91;5067558;28;20052;-74
2022/05/06 09:13:58;;;;;;;31.77;16.52;;;;;;;11.09;100.00;95960.59;5060378;28;20049;-73
2022/05/06 09:16:40;;;;;;;32.90;15.75;;;;;;;11.06;100.00;95962.97;5063821;28;20513;-73
2022/05/06 09:19:14;;;;;;;34.08;17.75;;;;;;;11.05;100.00;95977.19;5069250;28;20039;-73
2022/05/06 09:21:41;;;;;;;;;;;;;;;11.09;100.00;95962.44;5063491;28;20413;-73
2022/05/06 09:24:19;;;;;;;32.35;17.35;;;;;;;11.00;100.00;95966.63;5061929;28;19932;-73
2022/05/06 09:27:03;;;;;;;40.80;18.73;;;;;;;10.99;100.00;95959.78;5062879;28;20055;-73
2022/05/06 09:29:36;;;;;;;33.50;18.60;;;;;;;11.00;100.00;95964.78;5066653;28;20498;-73
2022/05/06 09:32:25;;;;;;;35.47;18.75;;;;;;;11.01;100.00;95965.59;5068277;28;20048;-73
2022/05/06 09:34:57;;;;;;;38.38;19.52;;;;;;;11.06;100.00;95963.75;5064650;28;20102;-73
2022/05/06 09:37:38;;;;;;;38.47;21.17;;;;;;;11.08;100.00;95960.88;5070024;28;20048;-73
2022/05/06 09:40:15;;;;;;;41.33;20.90;;;;;;;11.08;100.00;95968.78;5069047;28;20094;-74
2022/05/06 09:42:45;;;;;;;41.92;21.55;;;;;;;11.03;100.00;95972.19;5067514;28;20047;-75
2022/05/06 09:45:13;;;;;;;44.67;23.40;;;;;;;11.03;100.00;95963.47;5067156;28;20037;-75
2022/05/06 09:47:40;;;;;;;44.28;24.25;;;;;;;11.05;100.00;95966.66;5072639;28;20036;-76
2022/05/06 09:50:07;;;;;;;41.88;23.33;;;;;;;10.98;100.00;95968.75;5071170;28;20036;-77
2022/05/06 09:52:34;;;;;;;44.00;23.83;;;;;;;10.98;100.00;95966.13;5069116;28;20548;-74
2022/05/06 09:55:00;;;;;;;46.03;24.17;;;;;;;11.11;100.00;95970.88;5066640;28;20561;-73
2022/05/06 09:57:26;;;;;;;42.88;24.70;;;;;;;11.10;100.00;95971.91;5067312;28;20048;-73
2022/05/06 09:59:52;;;;;;;47.22;24.40;;;;;;;11.09;100.00;95971.16;5069011;28;20499;-74
2022/05/06 10:02:18;;;;;;;47.70;24.67;;;;;;;11.02;100.00;95975.06;5068690;28;20066;-73
2022/05/06 10:04:44;;;;;;;45.83;25.52;;;;;;;10.96;100.00;95978.75;5065345;28;20063;-74
2022/05/06 10:07:12;;;;;;;50.13;26.08;;;;;;;11.01;100.00;95976.13;5052051;28;20529;-74
2022/05/06 10:09:48;;;;;;;50.33;25.92;;;;;;;11.05;100.00;95977.19;5055860;28;20556;-74
2022/05/06 10:12:17;;;;;;;52.63;28.60;;;;;;;10.89;100.00;95974.53;5062503;28;20035;-75
2022/05/06 10:14:44;;;;;;;52.53;27.90;;;;;;;10.95;100.00;95977.97;5061201;28;20154;-74
2022/05/06 10:17:10;;;;;;;53.53;28.60;;;;;;;10.84;100.00;95981.63;5067238;28;20086;-75
2022/05/06 10:19:38;;;;;;;54.90;29.05;;;;;;;10.84;100.00;95977.13;5066992;28;20037;-74
2022/05/06 10:22:05;;;;;;;62.35;31.02;;;;;;;10.76;100.00;95980.28;5066024;28;20056;-76
2022/05/06 10:24:49;;;;;;;57.83;30.70;;;;;;;10.81;100.00;95982.91;5062918;28;20410;-76
2022/05/06 10:32:25;;;;;;;55.13;28.35;;;;;;;10.74;100.00;95979.72;5052714;28;20303;-77
2022/05/06 10:33:22;;;;;;;64.50;31.10;;;;;;;10.80;100.00;95976.06;5062508;28;20051;-75
2022/05/06 10:35:47;;;;;;;63.45;32.25;;;;;;;10.79;100.00;95974.50;5069863;28;20041;-75
2022/05/06 10:38:25;;;;;;;62.50;31.45;;;;;;;10.82;100.00;95979.25;5072102;28;20422;-74
2022/05/06 10:40:56;;;;;;;63.45;32.95;;;;;;;10.90;100.00;95981.38;5072586;28;20040;-75
2022/05/06 10:43:46;;;;;;;66.28;33.63;;;;;;;10.86;100.00;95980.31;5058881;28;20036;-74
2022/05/06 10:46:32;;;;;;;56.75;30.52;;;;;;;10.84;100.00;95982.38;5062580;28;20048;-74
2022/05/06 10:49:36;;;;;;;60.22;30.45;;;;;;;10.80;100.00;95981.31;5069580;28;20757;-74
2022/05/06 10:52:14;;;;;;;66.40;33.05;;;;;;;10.85;100.00;95973.44;5066315;28;20577;-75
2022/05/06 10:54:50;;;;;;;57.58;31.27;;;;;;;10.84;100.00;95977.13;5069850;28;20041;-75
2022/05/06 10:57:19;;;;;;;59.72;31.98;;;;;;;10.81;100.00;95967.13;5068994;28;20048;-74
2022/05/06 10:59:55;;;;;;;62.63;33.22;;;;;;;10.90;100.00;95976.13;5071008;28;20047;-75
2022/05/06 11:02:29;;;;;;;64.20;32.50;;;;;;;10.90;100.00;95973.47;5069834;28;20047;-74
2022/05/06 11:04:55;;;;;;;65.65;33.17;;;;;;;10.94;100.00;95975.59;5069765;28;20099;-73
2022/05/06 11:07:21;;;;;;;65.55;33.80;;;;;;;10.92;100.00;95979.25;5069825;28;20032;-74
2022/05/06 11:09:47;;;;;;;60.90;31.50;;;;;;;10.97;100.00;95986.38;5060009;28;20063;-75
2022/05/06 11:12:37;;;;;;;66.28;33.95;;;;;;;10.99;100.00;95988.75;5069112;28;20045;-74
2022/05/06 11:15:08;;;;;;;55.58;30.65;;;;;;;10.90;100.00;95981.38;5065591;28;20041;-77
2022/05/06 11:17:34;;;;;;;59.83;31.17;;;;;;;10.94;100.00;95986.13;5069834;28;20561;-76
2022/05/06 11:20:02;;;;;;;54.97;30.58;;;;;;;10.97;100.00;95975.06;5070365;28;20040;-75
2022/05/06 11:22:28;;;;;;;60.28;30.85;;;;;;;10.88;100.00;95982.69;5059762;28;20075;-75
2022/05/06 11:24:56;;;;;;;60.05;31.88;;;;;;;10.95;100.00;95971.88;5068723;28;20498;-76
2022/05/06 11:27:23;;;;;;;63.28;32.17;;;;;;;10.96;100.00;95974.28;5060089;28;20059;-76
2022/05/06 11:29:52;;;;;;;63.53;33.08;;;;;;;11.04;100.00;95972.97;5069509;28;20037;-74
2022/05/06 11:32:18;;;;;;;60.42;32.83;;;;;;;11.04;100.00;95973.75;5071134;28;20455;-76
2022/05/06 11:34:56;;;;;;;57.92;30.23;;;;;;;10.92;100.00;95963.47;5064552;28;20127;-76
2022/05/06 11:37:23;;;;;;;67.72;31.50;;;;;;;10.96;100.00;95973.47;5066495;28;20033;-76
2022/05/06 11:39:49;;;;;;;66.72;32.60;;;;;;;11.04;100.00;95975.59;5082362;28;20032;-76
2022/05/06 11:42:22;;;;;;;59.78;31.48;;;;;;;11.00;100.00;95969.28;5070724;28;20117;-75
2022/05/06 11:47:40;;;;;;;61.92;32.13;;;;;;;11.08;100.00;95971.41;5067550;28;20417;-74
2022/05/06 11:50:07;;;;;;;59.65;31.98;;;;;;;11.12;100.00;95967.19;5056755;28;20123;-74
2022/05/06 11:52:33;;;;;;;58.88;30.45;;;;;;;11.08;100.00;95971.41;5072992;28;20040;-75
2022/05/06 11:54:59;;;;;;;68.85;34.08;;;;;;;11.19;100.00;95972.19;5065054;28;20460;-75
2022/05/06 11:57:26;;;;;;;65.28;33.63;;;;;;;11.34;100.00;95968.81;5062354;28;20037;-74
2022/05/06 11:59:52;;;;;;;59.97;32.35;;;;;;;11.41;100.00;95964.84;5056851;28;20098;-73
2022/05/06 12:02:17;;;;;;;55.25;30.65;;;;;;;11.35;100.00;95970.38;5070273;28;20048;-76
2022/05/06 12:04:43;;;;;;;59.47;30.27;;;;;;;11.31;100.00;95970.13;5067567;28;20051;-77